Time;durP1;ratioP1;P1;durP2;ratioP2;P2;SDS_P1;SDS_P2;PMS_P1;PMS_P2;Temp;Humidity;BMP_temperature;BMP_pressure;BME280_temperature;BME280_humidity;BME280_pressure;Samples;Min_cycle;Max_cycle;Signal;HPM_P1;HPM_P2
2020/12/28 00:01:11;;;;;;;43.05;16.37;;;;;;;-0.97;72.58;102081.48;1728338;81;20946;-78
2020/12/28 00:03:39;;;;;;;40.38;17.10;;;;;;;-0.96;72.51;102092.20;1728193;81;21682;-78
2020/12/28 00:06:08;;;;;;;48.55;19.30;;;;;;;-0.97;72.38;102088.77;1757847;81;21005;-78
2020/12/28 00:08:37;;;;;;;34.67;15.65;;;;;;;-0.98;72.46;102089.60;1728171;81;21025;-80
2020/12/28 00:11:07;;;;;;;33.73;16.93;;;;;;;-0.94;72.31;102091.80;1757982;81;21475;-81
2020/12/28 00:13:38;;;;;;;28.30;15.72;;;;;;;-0.96;72.31;102091.77;1728291;81;20991;-80
2020/12/28 00:16:07;;;;;;;36.48;14.63;;;;;;;-0.94;72.06;102092.66;1728102;81;21052;-80
2020/12/28 00:18:35;;;;;;;34.67;16.45;;;;;;;-0.94;72.07;102094.37;1728285;81;21388;-80
2020/12/28 00:21:03;;;;;;;30.48;15.28;;;;;;;-0.94;72.01;102078.49;1728269;81;20930;-80
2020/12/28 00:23:31;;;;;;;32.40;15.75;;;;;;;-0.93;72.10;102075.52;1728256;81;21014;-80
2020/12/28 00:25:59;;;;;;;29.42;14.90;;;;;;;-0.94;72.13;102073.78;1728140;81;20993;-80
2020/12/28 00:28:27;;;;;;;28.10;13.03;;;;;;;-0.92;72.07;102075.52;1728288;81;21136;-80
2020/12/28 00:30:56;;;;;;;24.98;14.20;;;;;;;-0.95;72.04;102069.05;1728397;81;20962;-78
2020/12/28 00:33:23;;;;;;;42.35;15.50;;;;;;;-0.95;71.98;102065.20;1720709;82;20903;-80
2020/12/28 00:35:52;;;;;;;24.65;12.88;;;;;;;-0.96;72.01;102067.74;1717900;82;20986;-79
2020/12/28 00:38:21;;;;;;;20.95;13.83;;;;;;;-0.97;71.85;102066.89;1718371;82;21014;-81
2020/12/28 00:40:51;;;;;;;22.10;11.95;;;;;;;-0.97;71.52;102060.87;1717926;82;21087;-78
2020/12/28 00:43:19;;;;;;;20.17;12.58;;;;;;;-0.98;71.06;102052.70;1717747;82;21053;-78
2020/12/28 00:45:47;;;;;;;17.90;12.23;;;;;;;-0.99;70.87;102049.27;1717573;82;21025;-78
2020/12/28 00:48:15;;;;;;;19.73;11.35;;;;;;;-0.98;70.65;102060.42;1717446;82;21090;-77
2020/12/28 00:50:43;;;;;;;19.95;12.05;;;;;;;-1.01;70.46;102064.27;1717390;82;20958;-77
2020/12/28 00:53:11;;;;;;;17.77;10.58;;;;;;;-0.99;70.42;102054.42;1717459;82;21173;-77
2020/12/28 00:55:39;;;;;;;17.77;10.68;;;;;;;-0.99;69.96;102044.55;1717444;82;21037;-79
2020/12/28 00:58:07;;;;;;;17.62;10.70;;;;;;;-0.99;69.72;102047.98;1717380;82;21073;-80
2020/12/28 01:00:35;;;;;;;20.95;10.90;;;;;;;-0.99;69.62;102051.84;1693556;82;20982;-80
2020/12/28 01:03:06;;;;;;;16.97;10.65;;;;;;;-1.00;69.43;102050.13;1744826;82;20939;-78
2020/12/28 01:06:06;;;;;;;17.25;10.68;;;;;;;-0.95;69.25;102043.74;1852390;77;22715;-77
2020/12/28 01:08:35;;;;;;;14.13;10.38;;;;;;;-0.99;69.15;102037.69;1788072;78;20962;-78
2020/12/28 01:11:04;;;;;;;14.65;10.48;;;;;;;-1.01;68.98;102038.52;1745477;82;22256;-77
2020/12/28 01:13:32;;;;;;;15.93;10.48;;;;;;;-1.00;68.86;102044.98;1788189;78;20962;-78
2020/12/28 01:16:00;;;;;;;16.82;10.68;;;;;;;-1.01;68.93;102050.11;1719268;82;20934;-77
2020/12/28 01:18:30;;;;;;;18.00;10.60;;;;;;;-1.01;68.94;102050.96;1788193;78;20906;-76
2020/12/28 01:20:59;;;;;;;14.25;9.50;;;;;;;-0.99;68.77;102046.69;1720168;82;20931;-77
2020/12/28 01:23:29;;;;;;;14.90;9.18;;;;;;;-0.99;68.54;102036.40;1786892;78;21385;-76
2020/12/28 01:26:02;;;;;;;16.93;10.15;;;;;;;-0.98;68.40;102034.24;1786856;78;21064;-76
2020/12/28 01:28:32;;;;;;;14.95;8.75;;;;;;;-0.98;68.33;102029.53;1720510;82;20995;-76
2020/12/28 01:31:00;;;;;;;16.82;9.03;;;;;;;-0.96;68.27;102019.68;1788071;78;20954;-77
2020/12/28 01:33:43;;;;;;;19.70;11.65;;;;;;;-0.96;68.17;102027.41;1721879;82;21551;-76
2020/12/28 01:36:12;;;;;;;16.37;10.13;;;;;;;-0.96;67.95;102022.69;1722081;82;21073;-76
2020/12/28 01:38:43;;;;;;;16.42;9.78;;;;;;;-0.96;68.03;102013.67;1722008;82;21026;-79
2020/12/28 01:41:11;;;;;;;18.23;10.80;;;;;;;-0.99;67.94;102008.08;1722217;82;20966;-77
2020/12/28 01:43:57;;;;;;;17.75;10.30;;;;;;;-0.95;67.89;102007.70;1846251;76;22722;-77
2020/12/28 01:46:25;;;;;;;18.40;10.45;;;;;;;-1.01;67.83;102003.33;1789336;79;20951;-74
2020/12/28 01:48:54;;;;;;;15.10;9.00;;;;;;;-1.02;67.67;101999.45;1764790;79;21871;-77
2020/12/28 01:51:22;;;;;;;16.02;9.65;;;;;;;-1.03;67.73;101992.16;1787300;79;21399;-78
2020/12/28 01:53:51;;;;;;;17.85;9.90;;;;;;;-1.07;67.77;101987.81;1785977;79;20934;-75
2020/12/28 01:56:21;;;;;;;13.28;7.97;;;;;;;-1.07;67.66;101991.28;1783067;78;20946;-75
2020/12/28 01:58:51;;;;;;;19.25;9.78;;;;;;;-1.07;67.73;101994.25;1786309;79;20962;-77
2020/12/28 02:01:21;;;;;;;14.55;8.70;;;;;;;-1.07;67.76;101991.28;1786396;79;21904;-75
2020/12/28 02:03:49;;;;;;;20.17;9.18;;;;;;;-1.06;67.54;101990.84;1817781;78;20963;-76
2020/12/28 02:06:19;;;;;;;21.82;9.75;;;;;;;-1.06;67.67;101985.70;1786313;79;20967;-77
2020/12/28 02:08:47;;;;;;;22.00;9.20;;;;;;;-1.05;67.65;101983.55;1817693;79;20951;-77
2020/12/28 02:11:18;;;;;;;17.98;10.05;;;;;;;-1.05;67.61;101986.13;1784899;79;21143;-79
2020/12/28 02:13:46;;;;;;;20.60;9.83;;;;;;;-1.03;67.66;101984.43;1784789;79;20988;-80
2020/12/28 02:16:16;;;;;;;20.90;10.70;;;;;;;-1.02;67.62;101980.14;1782212;79;20989;-80
2020/12/28 02:18:46;;;;;;;24.40;9.83;;;;;;;-1.01;67.42;101974.16;1785129;79;20942;-79
2020/12/28 02:21:16;;;;;;;39.08;13.40;;;;;;;-1.03;67.32;101971.56;1786436;79;20998;-80
2020/12/28 02:23:44;;;;;;;29.20;12.73;;;;;;;-1.05;67.53;101956.52;1784946;79;21041;-80
2020/12/28 02:26:14;;;;;;;24.65;11.70;;;;;;;-1.05;67.64;101952.66;1786302;79;21123;-81
2020/12/28 02:28:42;;;;;;;21.12;10.80;;;;;;;-1.07;67.59;101954.35;1786687;79;20962;-82
2020/12/28 02:31:11;;;;;;;17.75;10.93;;;;;;;-1.09;67.60;101948.33;1787242;79;20939;-79
2020/12/28 02:33:48;;;;;;;22.80;10.78;;;;;;;-1.10;67.62;101953.91;1787020;79;20918;-79
2020/12/28 02:36:22;;;;;;;20.92;10.88;;;;;;;-1.11;67.47;101948.33;1787196;79;20926;-78
2020/12/28 02:38:50;;;;;;;17.95;9.93;;;;;;;-1.11;67.30;101948.33;1784996;79;22038;-77
2020/12/28 02:41:19;;;;;;;26.15;12.45;;;;;;;-1.14;67.34;101945.70;1784882;79;20931;-78
2020/12/28 02:44:06;;;;;;;23.27;11.65;;;;;;;-1.17;67.42;101937.97;1818547;78;20999;-77
2020/12/28 02:46:53;;;;;;;23.07;10.60;;;;;;;-1.19;67.43;101929.80;1789785;79;20994;-77
2020/12/28 02:49:39;;;;;;;27.62;10.25;;;;;;;-1.22;67.56;101939.64;1789357;79;20958;-76
2020/12/28 02:52:12;;;;;;;31.23;12.70;;;;;;;-1.24;67.64;101937.48;1781785;79;21083;-77
2020/12/28 02:54:59;;;;;;;34.60;12.55;;;;;;;-1.24;67.66;101938.77;1786518;79;21373;-79
2020/12/28 02:57:46;;;;;;;30.10;13.38;;;;;;;-1.25;67.74;101942.17;1784676;79;20998;-80
2020/12/28 03:00:31;;;;;;;28.73;12.55;;;;;;;-1.23;67.83;101944.77;1785753;79;20966;-77
2020/12/28 03:03:18;;;;;;;32.90;13.05;;;;;;;-1.21;67.83;101941.78;1785987;79;20926;-76
2020/12/28 03:06:05;;;;;;;30.60;12.73;;;;;;;-1.22;67.79;101931.92;1785713;79;21098;-77
2020/12/28 03:08:51;;;;;;;25.95;12.93;;;;;;;-1.23;67.70;101928.89;1785608;79;21001;-78
2020/12/28 03:11:37;;;;;;;29.20;11.60;;;;;;;-1.20;67.71;101930.62;1784465;79;20970;-76
2020/12/28 03:14:24;;;;;;;24.77;9.75;;;;;;;-1.21;67.52;101930.20;1785638;78;21045;-77
2020/12/28 03:17:08;;;;;;;27.62;10.98;;;;;;;-1.25;67.44;101928.87;1767461;79;21419;-78
2020/12/28 03:19:54;;;;;;;37.28;11.60;;;;;;;-1.24;67.52;101931.05;1785556;79;22525;-78
2020/12/28 03:22:40;;;;;;;29.25;11.20;;;;;;;-1.26;67.38;101934.87;1785558;79;20922;-76
2020/12/28 03:25:27;;;;;;;25.82;10.85;;;;;;;-1.25;67.26;101927.58;1785771;79;21435;-80
2020/12/28 03:28:13;;;;;;;34.70;13.80;;;;;;;-1.22;67.23;101940.93;1785576;79;21017;-80
2020/12/28 03:30:59;;;;;;;30.77;12.28;;;;;;;-1.21;67.27;101931.49;1785741;79;20919;-81
2020/12/28 03:33:46;;;;;;;32.48;12.65;;;;;;;-1.19;67.21;101930.66;1784190;79;21189;-78
2020/12/28 03:36:32;;;;;;;23.47;12.37;;;;;;;-1.16;67.37;101938.39;1785555;79;20927;-80
2020/12/28 03:39:19;;;;;;;37.05;14.60;;;;;;;-1.12;67.14;101926.42;1785578;79;20926;-80
2020/12/28 03:42:05;;;;;;;31.33;11.60;;;;;;;-1.09;67.23;101928.62;1785893;78;21006;-79
2020/12/28 03:44:51;;;;;;;39.53;14.38;;;;;;;-1.05;67.06;101928.20;1804540;78;20902;-79
2020/12/28 03:47:38;;;;;;;28.23;12.60;;;;;;;-1.02;67.09;101929.54;1804634;78;20967;-79
2020/12/28 03:50:24;;;;;;;35.90;13.00;;;;;;;-0.98;66.97;101927.41;1804680;78;21005;-80
2020/12/28 03:53:10;;;;;;;29.75;12.82;;;;;;;-0.94;67.04;101922.72;1806579;78;20878;-80
2020/12/28 03:55:57;;;;;;;31.52;12.98;;;;;;;-0.93;67.06;101911.59;1807934;78;21041;-78
2020/12/28 03:58:44;;;;;;;19.07;11.48;;;;;;;-0.88;67.02;101917.63;1807040;78;21012;-80
2020/12/28 04:01:31;;;;;;;25.32;13.10;;;;;;;-0.84;66.92;101914.23;1804772;78;21170;-79
2020/12/28 04:04:18;;;;;;;33.75;14.43;;;;;;;-0.83;66.86;101913.80;1804644;78;21013;-78
2020/12/28 04:07:05;;;;;;;30.62;15.95;;;;;;;-0.79;66.75;101912.98;1804650;78;20953;-80
2020/12/28 04:09:40;;;;;;;35.65;17.17;;;;;;;-0.77;66.89;101913.00;1774040;78;20938;-80
2020/12/28 04:12:11;;;;;;;29.63;15.70;;;;;;;-0.76;66.88;101916.00;1799333;78;21116;-79
2020/12/28 04:14:39;;;;;;;30.65;13.90;;;;;;;-0.72;66.70;101925.48;1804566;78;21150;-78
2020/12/28 04:17:07;;;;;;;29.65;14.43;;;;;;;-0.72;66.62;101918.61;1804744;78;20962;-78
2020/12/28 04:19:35;;;;;;;35.08;14.50;;;;;;;-0.71;66.72;101922.04;1804555;78;20930;-78
2020/12/28 04:22:04;;;;;;;31.30;15.30;;;;;;;-0.69;66.82;101919.05;1804366;78;21048;-78
2020/12/28 04:24:32;;;;;;;28.67;13.93;;;;;;;-0.69;66.79;101923.80;1804562;77;20883;-78
2020/12/28 04:26:59;;;;;;;29.37;12.68;;;;;;;-0.63;66.83;101935.84;1804690;78;21391;-78
2020/12/28 04:29:27;;;;;;;24.50;13.98;;;;;;;-0.61;66.73;101935.87;1804688;78;21468;-77
2020/12/28 04:31:55;;;;;;;28.17;14.13;;;;;;;-0.57;66.59;101934.61;1804673;78;21416;-79
2020/12/28 04:34:23;;;;;;;24.37;12.35;;;;;;;-0.53;66.61;101920.05;1804688;78;20973;-78
2020/12/28 04:36:52;;;;;;;25.00;13.50;;;;;;;-0.50;66.42;101919.62;1804651;78;21337;-80
2020/12/28 04:39:19;;;;;;;25.43;13.05;;;;;;;-0.50;66.34;101918.34;1804577;78;21123;-80
2020/12/28 04:41:47;;;;;;;22.90;12.23;;;;;;;-0.49;66.41;101921.37;1804558;78;20985;-78
2020/12/28 04:44:15;;;;;;;22.20;11.85;;;;;;;-0.46;66.17;101915.37;1789284;79;21010;-78
2020/12/28 04:46:43;;;;;;;20.77;12.00;;;;;;;-0.44;66.18;101911.94;1760338;77;21759;-80
2020/12/28 04:49:11;;;;;;;23.00;10.72;;;;;;;-0.40;66.15;101910.26;1785575;79;21338;-79
2020/12/28 04:51:46;;;;;;;33.70;13.95;;;;;;;-0.37;66.02;101918.43;1759169;79;21195;-80
2020/12/28 04:54:40;;;;;;;23.95;11.00;;;;;;;-0.36;66.15;101919.70;1815104;79;21448;-80
2020/12/28 05:00:08;;;;;;;29.25;11.03;;;;;;;-0.29;65.94;101916.34;1821187;77;25094;-78
2020/12/28 05:02:40;;;;;;;27.27;10.48;;;;;;;-0.34;65.89;101929.60;1793709;78;21372;-79
2020/12/28 05:05:08;;;;;;;27.73;9.58;;;;;;;-0.36;65.82;101908.11;1820418;78;22141;-77
2020/12/28 05:07:45;;;;;;;18.55;10.68;;;;;;;-0.38;65.90;101897.36;1781701;80;21444;-77
2020/12/28 05:10:24;;;;;;;26.50;12.10;;;;;;;-0.40;65.90;101905.51;1729329;81;21408;-78
2020/12/28 05:12:53;;;;;;;24.05;12.28;;;;;;;-0.40;66.02;101896.48;1755558;80;20970;-78
2020/12/28 05:15:21;;;;;;;26.07;11.93;;;;;;;-0.41;65.99;101886.61;1755686;80;21531;-79
2020/12/28 05:17:53;;;;;;;24.52;11.70;;;;;;;-0.38;65.95;101882.75;1755640;80;21490;-78
2020/12/28 05:20:28;;;;;;;23.62;11.93;;;;;;;-0.39;66.01;101880.19;1782589;80;21436;-78
2020/12/28 05:22:58;;;;;;;30.37;11.95;;;;;;;-0.39;66.06;101886.20;1757688;80;20947;-76
2020/12/28 05:25:28;;;;;;;34.30;12.43;;;;;;;-0.43;65.99;101889.17;1758819;80;21057;-76
2020/12/28 05:27:57;;;;;;;28.02;11.95;;;;;;;-0.43;65.90;101878.02;1727599;80;21011;-75
2020/12/28 05:30:26;;;;;;;26.68;11.30;;;;;;;-0.40;65.70;101888.75;1729132;81;22890;-78
2020/12/28 05:32:54;;;;;;;20.92;9.75;;;;;;;-0.38;65.85;101896.08;1729161;81;20966;-77
2020/12/28 05:35:22;;;;;;;16.07;7.97;;;;;;;-0.37;65.28;101899.95;1731162;80;20966;-79
2020/12/28 05:37:50;;;;;;;20.25;10.68;;;;;;;-0.33;64.99;101890.11;1755685;80;20986;-81
2020/12/28 05:40:18;;;;;;;15.43;8.55;;;;;;;-0.32;64.76;101900.83;1753975;81;21080;-79
2020/12/28 05:42:50;;;;;;;23.25;9.78;;;;;;;-0.28;64.51;101903.02;1755704;80;21883;-78
2020/12/28 05:45:18;;;;;;;21.25;9.30;;;;;;;-0.27;64.34;101907.30;1781186;80;20990;-79
2020/12/28 05:47:53;;;;;;;16.45;7.58;;;;;;;-0.24;64.26;101904.77;1781383;80;20931;-79
2020/12/28 05:50:31;;;;;;;15.78;8.13;;;;;;;-0.22;63.67;101910.36;1755604;80;21010;-78
2020/12/28 05:53:01;;;;;;;18.95;8.53;;;;;;;-0.19;63.48;101908.22;1755609;80;21041;-81
2020/12/28 05:55:30;;;;;;;19.57;8.08;;;;;;;-0.16;63.61;101904.35;1781507;80;22054;-80
2020/12/28 05:57:59;;;;;;;15.78;8.45;;;;;;;-0.15;63.51;101903.52;1781097;80;21066;-79
2020/12/28 06:00:28;;;;;;;14.83;7.85;;;;;;;-0.12;63.09;101891.06;1781389;80;20976;-78
2020/12/28 06:03:00;;;;;;;20.90;8.10;;;;;;;-0.13;63.05;101897.09;1781364;80;21381;-78
2020/12/28 06:05:28;;;;;;;15.55;8.55;;;;;;;-0.10;62.78;101903.09;1731071;80;21630;-80
2020/12/28 06:07:56;;;;;;;18.70;8.75;;;;;;;-0.07;62.85;101897.09;1781358;80;21241;-78
2020/12/28 06:10:24;;;;;;;19.85;8.38;;;;;;;-0.07;62.80;101892.83;1780974;80;21006;-78
2020/12/28 06:12:56;;;;;;;18.77;9.85;;;;;;;-0.04;62.58;101894.55;1730431;80;20963;-78
2020/12/28 06:15:25;;;;;;;23.45;9.58;;;;;;;-0.03;62.83;101903.99;1780682;80;20963;-78
2020/12/28 06:17:54;;;;;;;19.60;7.78;;;;;;;-0.03;62.47;101898.40;1780729;80;20971;-79
2020/12/28 06:20:31;;;;;;;18.87;6.45;;;;;;;-0.03;62.37;101897.55;1780692;80;21048;-77
2020/12/28 06:23:07;;;;;;;13.22;6.80;;;;;;;-0.02;61.73;101887.69;1754942;80;21503;-77
2020/12/28 06:25:35;;;;;;;13.93;6.87;;;;;;;-0.03;61.56;101886.80;1780683;80;20927;-78
2020/12/28 06:28:03;;;;;;;15.18;6.92;;;;;;;-0.02;61.75;101877.37;1730278;80;20923;-77
2020/12/28 06:30:31;;;;;;;12.47;5.60;;;;;;;-0.02;61.66;101878.22;1780698;80;21002;-77
2020/12/28 06:33:04;;;;;;;20.15;6.45;;;;;;;0.01;61.29;101881.23;1754660;80;22959;-76
2020/12/28 06:35:32;;;;;;;12.28;6.25;;;;;;;0.02;61.00;101892.41;1780544;80;20967;-78
2020/12/28 06:38:01;;;;;;;13.80;6.75;;;;;;;0.01;61.17;101895.86;1780662;80;21030;-79
2020/12/28 06:40:32;;;;;;;16.95;5.67;;;;;;;0.07;60.93;101891.98;1780722;80;20922;-79
2020/12/28 06:43:12;;;;;;;18.62;6.80;;;;;;;0.08;60.70;101889.42;1780814;80;21042;-79
2020/12/28 06:45:42;;;;;;;13.30;7.42;;;;;;;0.11;60.57;101889.45;1780719;80;21014;-79
2020/12/28 06:48:23;;;;;;;18.17;7.90;;;;;;;0.16;60.74;101892.91;1780668;80;21535;-78
2020/12/28 06:50:53;;;;;;;17.52;6.33;;;;;;;0.18;60.29;101892.92;1754970;80;21022;-80
2020/12/28 06:53:26;;;;;;;13.93;5.72;;;;;;;0.21;60.19;101885.17;1780653;80;20947;-79
2020/12/28 06:56:08;;;;;;;17.55;6.12;;;;;;;0.23;59.85;101884.76;1754867;80;20967;-77
2020/12/28 06:58:36;;;;;;;18.25;7.10;;;;;;;0.24;60.28;101885.61;1780453;80;21984;-77
2020/12/28 07:01:05;;;;;;;23.35;7.33;;;;;;;0.26;60.07;101878.74;1780529;80;20982;-78
2020/12/28 07:03:33;;;;;;;14.10;5.83;;;;;;;0.29;59.96;101874.47;1780719;80;20970;-83
2020/12/28 07:06:05;;;;;;;19.75;6.53;;;;;;;0.30;59.85;101871.02;1781101;80;20978;-85
2020/12/28 07:08:35;;;;;;;16.85;7.37;;;;;;;0.31;59.31;101884.36;1781552;80;20970;-87
2020/12/28 07:11:04;;;;;;;20.80;6.60;;;;;;;0.33;59.73;101870.16;1781946;80;22648;-80
2020/12/28 07:13:32;;;;;;;27.10;6.55;;;;;;;0.34;59.86;101858.55;1780715;80;20963;-80
2020/12/28 07:16:06;;;;;;;18.40;7.25;;;;;;;0.39;59.67;101859.42;1781035;80;21472;-83
2020/12/28 07:18:35;;;;;;;19.20;6.33;;;;;;;0.41;59.83;101865.88;1755054;80;21380;-80
2020/12/28 07:21:03;;;;;;;30.00;8.35;;;;;;;0.46;59.59;101854.27;1780761;80;20971;-79
2020/12/28 07:23:33;;;;;;;18.98;7.10;;;;;;;0.50;59.67;101852.99;1755411;80;21232;-81
2020/12/28 07:26:09;;;;;;;23.30;8.33;;;;;;;0.53;59.73;101840.52;1781504;80;21014;-79
2020/12/28 07:28:39;;;;;;;33.50;8.30;;;;;;;0.56;59.47;101845.27;1755528;80;21057;-83
2020/12/28 07:31:07;;;;;;;27.37;6.75;;;;;;;0.58;59.55;101851.73;1780693;80;20971;-82
2020/12/28 07:33:44;;;;;;;24.18;7.00;;;;;;;0.63;59.20;101847.86;1754855;80;20959;-88
2020/12/28 07:36:15;;;;;;;28.42;7.37;;;;;;;0.64;59.29;101855.58;1780998;80;21160;-87
2020/12/28 07:38:47;;;;;;;19.62;7.17;;;;;;;0.66;58.93;101869.35;1780927;80;20990;-82
2020/12/28 07:41:17;;;;;;;25.48;6.75;;;;;;;0.65;58.97;101856.03;1780933;80;20963;-82
2020/12/28 07:43:58;;;;;;;31.52;8.53;;;;;;;0.65;59.12;101852.59;1780779;80;20951;-84
2020/12/28 07:46:51;;;;;;;24.90;8.00;;;;;;;0.68;59.18;101849.56;1754779;80;20963;-83
2020/12/28 07:49:23;;;;;;;21.93;6.92;;;;;;;0.71;58.95;101859.03;1755474;80;21183;-85
2020/12/28 07:52:13;;;;;;;23.27;6.50;;;;;;;0.74;59.11;101862.48;1780970;80;21488;-86
2020/12/28 07:55:21;;;;;;;17.12;6.70;;;;;;;0.73;59.07;101848.28;1781098;80;20958;-82
2020/12/28 07:58:16;;;;;;;23.60;8.08;;;;;;;0.77;58.77;101841.82;1755203;80;21109;-82
2020/12/28 08:00:47;;;;;;;22.50;5.80;;;;;;;0.81;58.90;101840.12;1754539;80;20954;-83
2020/12/28 08:03:29;;;;;;;14.87;5.10;;;;;;;0.82;58.51;101832.38;1781320;80;21166;-83
2020/12/28 08:06:02;;;;;;;18.02;6.75;;;;;;;0.85;58.77;101828.93;1754482;80;20997;-79
2020/12/28 08:08:32;;;;;;;16.93;6.53;;;;;;;0.86;58.82;101820.75;1781033;80;21014;-81
2020/12/28 08:11:02;;;;;;;11.55;5.40;;;;;;;0.90;59.08;101820.73;1755588;80;20966;-82
2020/12/28 08:13:38;;;;;;;18.82;7.40;;;;;;;0.96;58.65;101814.28;1784849;80;21055;-81
2020/12/28 08:16:15;;;;;;;21.52;8.68;;;;;;;1.02;58.47;101810.41;1732543;81;21516;-81
2020/12/28 08:21:39;;;;;;;22.15;6.37;;;;;;;1.15;58.06;101812.52;1848693;75;22757;-81
2020/12/28 08:24:17;;;;;;;22.42;6.03;;;;;;;1.15;57.85;101805.21;1787261;79;20895;-80
2020/12/28 08:26:48;;;;;;;22.15;6.22;;;;;;;1.18;57.56;101797.47;1786247;79;21022;-83
2020/12/28 08:29:20;;;;;;;25.40;7.35;;;;;;;1.22;57.74;101796.17;1785643;79;20950;-85
2020/12/28 08:31:51;;;;;;;21.07;5.72;;;;;;;1.26;57.46;101797.44;1788301;79;20942;-87
2020/12/28 08:34:19;;;;;;;25.68;7.05;;;;;;;1.29;57.47;101792.25;1788700;79;20900;-85
2020/12/28 08:36:54;;;;;;;26.80;7.65;;;;;;;1.30;57.78;101783.66;1790236;79;21002;-87
2020/12/28 08:39:26;;;;;;;25.55;8.93;;;;;;;1.35;57.74;101771.12;1821791;79;21207;-88
2020/12/28 08:42:02;;;;;;;23.57;6.75;;;;;;;1.44;57.72;101774.97;1788323;79;21038;-80
2020/12/28 08:44:35;;;;;;;17.80;6.00;;;;;;;1.50;57.61;101783.59;1790417;78;20950;-92
2020/12/28 08:47:12;;;;;;;17.37;7.08;;;;;;;1.55;57.72;101773.64;1788135;79;21006;-81
2020/12/28 08:49:46;;;;;;;20.92;5.35;;;;;;;1.63;57.92;101759.41;1787398;79;20934;-84
2020/12/28 08:52:19;;;;;;;11.65;4.47;;;;;;;1.74;57.47;101764.09;1819434;79;21388;-82
2020/12/28 08:54:55;;;;;;;;;;;;;;;1.76;57.12;101779.17;1821231;77;20962;-79
2020/12/28 08:57:26;;;;;;;17.60;6.22;;;;;;;1.74;57.48;101771.00;1786684;79;20496;-81
2020/12/28 08:59:56;;;;;;;15.35;6.33;;;;;;;1.72;57.60;101763.23;1787007;79;21037;-81
2020/12/28 09:02:25;;;;;;;20.60;6.65;;;;;;;1.69;58.00;101752.92;1789543;79;20974;-79
2020/12/28 09:04:55;;;;;;;14.15;5.58;;;;;;;1.71;57.88;101751.16;1789484;79;21874;-83
2020/12/28 09:07:23;;;;;;;10.35;5.60;;;;;;;1.76;58.38;101741.67;1789540;77;21105;-87
2020/12/28 09:09:52;;;;;;;11.88;5.60;;;;;;;1.84;58.25;101741.17;1786715;79;21361;-81
2020/12/28 09:12:26;;;;;;;10.70;5.53;;;;;;;1.94;57.92;101747.61;1787129;79;21372;-94
2020/12/28 09:14:56;;;;;;;9.80;5.62;;;;;;;1.99;57.78;101741.97;1786187;79;21005;-81
2020/12/28 09:17:24;;;;;;;9.53;6.00;;;;;;;1.99;57.75;101734.20;1786119;79;21708;-82
2020/12/28 09:19:52;;;;;;;8.95;5.15;;;;;;;1.94;57.90;101745.87;1790599;78;20950;-80
2020/12/28 09:22:20;;;;;;;17.60;9.85;;;;;;;1.91;58.26;101727.77;1807857;77;21463;-81
2020/12/28 09:24:48;;;;;;;11.12;7.28;;;;;;;1.92;58.53;101722.19;1807809;78;20957;-82
2020/12/28 09:27:17;;;;;;;11.93;7.20;;;;;;;1.95;58.68;101711.81;1807781;78;20986;-80
2020/12/28 09:29:45;;;;;;;8.25;4.17;;;;;;;1.98;58.61;101716.55;1807685;77;21720;-80
2020/12/28 09:32:13;;;;;;;10.68;5.03;;;;;;;2.00;58.70;101695.41;1807156;78;21479;-79
2020/12/28 09:34:41;;;;;;;10.50;4.37;;;;;;;2.02;59.08;101691.08;1807094;78;20927;-78
2020/12/28 09:37:09;;;;;;;6.72;4.78;;;;;;;2.10;58.85;101679.81;1807091;77;20969;-79
2020/12/28 09:39:37;;;;;;;9.20;4.78;;;;;;;2.13;58.86;101687.09;1807280;78;21006;-80
2020/12/28 09:42:06;;;;;;;12.00;4.03;;;;;;;2.14;58.86;101678.92;1807188;77;22100;-79
2020/12/28 09:44:34;;;;;;;11.05;4.67;;;;;;;2.13;58.91;101683.66;1807235;78;21514;-77
2020/12/28 09:47:02;;;;;;;11.30;6.12;;;;;;;2.12;59.16;101672.45;1835347;77;20934;-77
2020/12/28 09:49:29;;;;;;;8.70;4.47;;;;;;;2.14;59.11;101672.45;1780820;78;20930;-76
2020/12/28 09:51:59;;;;;;;10.48;4.08;;;;;;;2.15;59.04;101669.83;1807162;78;21530;-76
2020/12/28 09:54:27;;;;;;;8.15;4.20;;;;;;;2.11;59.30;101663.40;1807171;78;21754;-75
2020/12/28 09:57:04;;;;;;;7.15;4.95;;;;;;;2.09;59.61;101675.08;1806013;78;20985;-76
2020/12/28 09:59:36;;;;;;;10.60;4.78;;;;;;;2.07;59.49;101675.08;1835375;77;20985;-77
2020/12/28 10:02:08;;;;;;;8.30;4.22;;;;;;;2.06;59.67;101655.67;1795685;78;20993;-76
2020/12/28 10:04:37;;;;;;;9.60;5.37;;;;;;;2.03;59.88;101664.33;1795398;78;20915;-75
2020/12/28 10:07:05;;;;;;;8.58;4.53;;;;;;;2.03;60.22;101660.89;1795629;78;21969;-76
2020/12/28 10:09:33;;;;;;;19.87;8.53;;;;;;;2.04;60.46;101640.16;1795607;78;21443;-78
2020/12/28 10:12:01;;;;;;;13.55;6.30;;;;;;;2.08;60.26;101624.19;1796104;78;21061;-77
2020/12/28 10:14:30;;;;;;;13.50;7.05;;;;;;;2.10;60.30;101644.88;1796818;78;20954;-76
2020/12/28 10:16:59;;;;;;;16.23;5.65;;;;;;;2.08;60.25;101637.13;1822765;78;20887;-79
2020/12/28 10:19:27;;;;;;;19.37;6.70;;;;;;;2.06;60.41;101624.19;1796711;78;21013;-79
2020/12/28 10:22:00;;;;;;;14.87;4.80;;;;;;;2.05;60.70;101618.61;1788880;79;21439;-77
2020/12/28 10:24:28;;;;;;;16.45;5.70;;;;;;;2.07;60.67;101624.62;1786291;79;20947;-79
2020/12/28 10:26:57;;;;;;;15.93;6.50;;;;;;;2.09;60.78;101611.69;1787733;79;20962;-76
2020/12/28 10:29:25;;;;;;;16.12;6.60;;;;;;;2.15;61.17;101613.34;1787608;79;21571;-78
2020/12/28 10:31:58;;;;;;;19.65;7.25;;;;;;;2.19;61.05;101616.33;1786403;79;21365;-78
2020/12/28 10:34:29;;;;;;;20.57;6.85;;;;;;;2.19;61.05;101618.92;1787525;79;21030;-77
2020/12/28 10:36:57;;;;;;;13.32;6.17;;;;;;;2.22;61.10;101629.23;1787572;79;21002;-77
2020/12/28 10:39:25;;;;;;;19.67;7.10;;;;;;;2.23;61.12;101619.32;1787678;79;21031;-82
2020/12/28 10:41:55;;;;;;;14.23;6.60;;;;;;;2.22;61.27;101607.23;1787594;79;20958;-76
2020/12/28 10:44:23;;;;;;;19.35;7.20;;;;;;;2.21;61.45;101609.41;1786158;79;21026;-75
2020/12/28 10:46:52;;;;;;;24.05;8.05;;;;;;;2.20;61.43;101608.56;1787607;79;21334;-74
2020/12/28 10:49:19;;;;;;;21.87;8.80;;;;;;;2.18;61.64;101610.30;1787614;79;21457;-76
2020/12/28 10:51:47;;;;;;;19.55;6.72;;;;;;;2.18;61.92;101580.95;1787623;79;20943;-76
2020/12/28 10:54:15;;;;;;;15.40;6.08;;;;;;;2.16;61.96;101602.99;1787583;79;20926;-77
2020/12/28 10:56:43;;;;;;;21.73;8.03;;;;;;;2.13;61.96;101573.24;1787519;79;21673;-75
2020/12/28 10:59:12;;;;;;;13.90;6.45;;;;;;;2.11;62.22;101581.45;1787642;79;20962;-77
2020/12/28 11:01:41;;;;;;;18.17;6.60;;;;;;;2.08;62.51;101578.47;1786292;79;21392;-76
2020/12/28 11:04:09;;;;;;;14.63;6.33;;;;;;;2.07;62.52;101563.83;1787548;79;20955;-75
2020/12/28 11:06:42;;;;;;;15.13;5.95;;;;;;;2.08;62.68;101578.91;1787502;79;20950;-78
2020/12/28 11:09:11;;;;;;;10.00;5.72;;;;;;;2.10;62.68;101574.58;1787491;79;22623;-75
2020/12/28 11:11:38;;;;;;;9.55;4.83;;;;;;;2.14;62.68;101578.86;1787479;79;21103;-75
2020/12/28 11:14:06;;;;;;;9.95;5.53;;;;;;;2.16;62.74;101577.56;1787553;79;21014;-76
2020/12/28 11:16:34;;;;;;;10.60;5.70;;;;;;;2.17;62.80;101570.20;1787555;77;21459;-77
2020/12/28 11:19:02;;;;;;;17.50;8.75;;;;;;;2.18;62.96;101574.48;1787608;79;21551;-75
2020/12/28 11:21:30;;;;;;;20.08;8.15;;;;;;;2.22;62.93;101568.00;1792489;78;22775;-75
2020/12/28 11:23:59;;;;;;;16.50;7.22;;;;;;;2.25;62.84;101568.41;1795330;78;20938;-75
2020/12/28 11:26:29;;;;;;;16.15;5.20;;;;;;;2.30;62.74;101583.44;1795361;78;20943;-77
2020/12/28 11:28:57;;;;;;;16.23;6.22;;;;;;;2.25;62.46;101564.52;1794136;78;20970;-78
2020/12/28 11:31:25;;;;;;;20.02;7.70;;;;;;;2.19;62.67;101546.47;1795636;78;21586;-77
2020/12/28 11:33:54;;;;;;;19.45;5.28;;;;;;;2.15;62.99;101559.01;1795419;78;21728;-77
2020/12/28 11:36:23;;;;;;;16.15;6.00;;;;;;;2.13;63.08;101560.30;1794141;78;21486;-80
2020/12/28 11:38:52;;;;;;;13.62;5.28;;;;;;;2.13;63.11;101546.08;1795562;77;20958;-76
2020/12/28 11:41:19;;;;;;;13.60;5.45;;;;;;;2.12;63.23;101531.44;1793836;78;20939;-75
2020/12/28 11:43:48;;;;;;;14.33;5.85;;;;;;;2.10;63.31;101556.47;1795509;78;20934;-77
2020/12/28 11:46:17;;;;;;;11.75;6.12;;;;;;;2.09;63.48;101548.30;1794129;78;21447;-78
2020/12/28 11:50:59;;;;;;;13.20;5.60;;;;;;;2.16;63.61;101536.16;1813473;79;23199;-75